createdAt,value
2018-11-26T00:00:21.783Z,100.00
2018-11-26T00:02:51.929Z,100.00
2018-11-26T00:05:20.645Z,100.00
2018-11-26T00:07:50.099Z,100.00
2018-11-26T00:10:30.835Z,100.00
2018-11-26T00:13:00.889Z,100.00
2018-11-26T00:15:30.762Z,100.00
2018-11-26T00:18:00.958Z,100.00
2018-11-26T00:20:30.276Z,100.00
2018-11-26T00:22:59.666Z,100.00
2018-11-26T00:25:28.458Z,100.00
2018-11-26T00:27:57.218Z,100.00
2018-11-26T00:30:25.932Z,100.00
2018-11-26T00:32:54.759Z,100.00
2018-11-26T00:35:23.493Z,100.00
2018-11-26T00:37:52.314Z,100.00
2018-11-26T00:40:21.054Z,100.00
2018-11-26T00:42:49.943Z,100.00
2018-11-26T00:45:18.674Z,100.00
2018-11-26T00:47:47.408Z,99.73
2018-11-26T00:50:16.174Z,99.55
2018-11-26T00:52:44.910Z,100.00
2018-11-26T00:55:14.022Z,100.00
2018-11-26T00:57:42.945Z,100.00
2018-11-26T01:00:13.052Z,100.00
2018-11-26T01:02:41.953Z,100.00
2018-11-26T01:05:21.375Z,100.00
2018-11-26T01:07:50.065Z,100.00
2018-11-26T01:10:18.779Z,100.00
2018-11-26T01:12:47.570Z,100.00
2018-11-26T01:15:16.461Z,100.00
2018-11-26T01:17:46.044Z,100.00
2018-11-26T01:20:14.768Z,100.00
2018-11-26T01:22:43.506Z,100.00
2018-11-26T01:25:12.161Z,100.00
2018-11-26T01:27:40.957Z,100.00
2018-11-26T01:30:10.384Z,100.00
2018-11-26T01:32:39.363Z,100.00
2018-11-26T01:35:08.896Z,100.00
2018-11-26T01:37:37.769Z,100.00
2018-11-26T01:40:13.733Z,100.00
2018-11-26T01:42:42.989Z,100.00
2018-11-26T01:45:11.961Z,100.00
2018-11-26T01:47:41.165Z,100.00
2018-11-26T01:50:10.445Z,100.00
2018-11-26T01:52:39.643Z,100.00
2018-11-26T01:55:10.176Z,100.00
2018-11-26T01:57:39.171Z,100.00
2018-11-26T02:00:16.688Z,100.00
2018-11-26T02:02:45.500Z,100.00
2018-11-26T02:05:14.880Z,100.00
2018-11-26T02:07:43.863Z,100.00
2018-11-26T02:10:15.636Z,100.00
2018-11-26T02:12:44.583Z,100.00
2018-11-26T02:15:14.629Z,100.00
2018-11-26T02:17:43.423Z,100.00
2018-11-26T02:20:12.313Z,100.00
2018-11-26T02:22:41.165Z,100.00
2018-11-26T02:25:10.194Z,100.00
2018-11-26T02:27:38.977Z,100.00
2018-11-26T02:30:09.783Z,100.00
2018-11-26T02:32:38.638Z,100.00
2018-11-26T02:35:07.612Z,100.00
2018-11-26T02:37:36.496Z,100.00
2018-11-26T02:40:06.354Z,100.00
2018-11-26T02:42:35.045Z,100.00
2018-11-26T02:45:04.269Z,100.00
2018-11-26T02:47:33.000Z,100.00
2018-11-26T02:50:01.714Z,100.00
2018-11-26T02:52:30.462Z,100.00
2018-11-26T02:54:59.281Z,100.00
2018-11-26T02:57:28.137Z,100.00
2018-11-26T02:59:56.939Z,100.00
2018-11-26T03:02:25.694Z,100.00
2018-11-26T03:04:54.702Z,100.00
2018-11-26T03:07:23.430Z,100.00
2018-11-26T03:09:52.233Z,100.00
2018-11-26T03:12:21.012Z,100.00
2018-11-26T03:14:49.804Z,100.00
2018-11-26T03:17:18.519Z,100.00
2018-11-26T03:19:47.296Z,100.00
2018-11-26T03:22:16.032Z,100.00
2018-11-26T03:24:44.790Z,100.00
2018-11-26T03:27:14.370Z,100.00
2018-11-26T03:29:43.090Z,100.00
2018-11-26T03:32:11.775Z,100.00
2018-11-26T03:34:40.497Z,100.00
2018-11-26T03:37:09.221Z,100.00
2018-11-26T03:39:38.005Z,100.00
2018-11-26T03:42:06.795Z,100.00
2018-11-26T03:44:35.616Z,100.00
2018-11-26T03:47:04.398Z,100.00
2018-11-26T03:49:33.089Z,100.00
2018-11-26T03:52:01.755Z,100.00
2018-11-26T03:54:30.953Z,100.00
2018-11-26T03:56:59.675Z,100.00
2018-11-26T03:59:28.352Z,100.00
2018-11-26T04:01:57.521Z,100.00
2018-11-26T04:04:26.262Z,100.00
2018-11-26T04:06:54.958Z,100.00
2018-11-26T04:09:23.680Z,100.00
2018-11-26T04:11:52.380Z,100.00
2018-11-26T04:14:21.183Z,100.00
2018-11-26T04:16:49.940Z,100.00
2018-11-26T04:19:18.746Z,100.00
2018-11-26T04:21:47.879Z,100.00
2018-11-26T04:24:16.608Z,100.00
2018-11-26T04:26:45.624Z,100.00
2018-11-26T04:29:14.435Z,100.00
2018-11-26T04:31:43.292Z,100.00
2018-11-26T04:34:12.131Z,100.00
2018-11-26T04:36:40.925Z,100.00
2018-11-26T04:39:09.721Z,100.00
2018-11-26T04:41:38.516Z,100.00
2018-11-26T04:44:07.590Z,100.00
2018-11-26T04:46:36.467Z,100.00
2018-11-26T04:49:06.278Z,100.00
2018-11-26T04:51:35.068Z,100.00
2018-11-26T04:54:03.910Z,100.00
2018-11-26T04:56:32.648Z,100.00
2018-11-26T04:59:01.711Z,100.00
2018-11-26T05:01:30.367Z,100.00
2018-11-26T05:03:59.102Z,100.00
2018-11-26T05:06:27.797Z,100.00
2018-11-26T05:08:56.903Z,100.00
2018-11-26T05:11:25.909Z,100.00
2018-11-26T05:13:54.677Z,100.00
2018-11-26T05:16:23.517Z,100.00
2018-11-26T05:18:52.201Z,100.00
2018-11-26T05:21:21.596Z,100.00
2018-11-26T05:23:50.805Z,100.00
2018-11-26T05:26:19.493Z,100.00
2018-11-26T05:28:48.547Z,100.00
2018-11-26T05:31:17.228Z,100.00
2018-11-26T05:33:45.958Z,100.00
2018-11-26T05:36:14.657Z,100.00
2018-11-26T05:38:43.291Z,100.00
2018-11-26T05:41:11.943Z,100.00
2018-11-26T05:43:40.675Z,100.00
2018-11-26T05:46:09.373Z,100.00
2018-11-26T05:48:38.040Z,100.00
2018-11-26T05:51:06.761Z,100.00
2018-11-26T05:53:35.429Z,100.00
2018-11-26T05:56:04.154Z,100.00
2018-11-26T05:58:32.782Z,100.00
2018-11-26T06:01:01.466Z,100.00
2018-11-26T06:03:30.202Z,100.00
2018-11-26T06:05:58.903Z,100.00
2018-11-26T06:08:27.607Z,100.00
2018-11-26T06:10:56.314Z,100.00
2018-11-26T06:13:24.971Z,100.00
2018-11-26T06:15:53.662Z,100.00
2018-11-26T06:18:22.372Z,100.00
2018-11-26T06:20:51.067Z,100.00
2018-11-26T06:23:20.340Z,100.00
2018-11-26T06:25:49.003Z,100.00
2018-11-26T06:28:17.680Z,100.00
2018-11-26T06:30:46.387Z,100.00
2018-11-26T06:33:15.027Z,100.00
2018-11-26T06:35:43.671Z,100.00
2018-11-26T06:38:12.429Z,100.00
2018-11-26T06:40:41.225Z,100.00
2018-11-26T06:43:09.951Z,100.00
2018-11-26T06:45:38.645Z,100.00
2018-11-26T06:48:07.619Z,100.00
2018-11-26T06:50:36.274Z,100.00
2018-11-26T06:53:05.017Z,100.00
2018-11-26T06:55:33.720Z,100.00
2018-11-26T06:58:02.376Z,100.00
2018-11-26T07:00:31.182Z,100.00
2018-11-26T07:02:59.806Z,100.00
2018-11-26T07:05:28.486Z,100.00
2018-11-26T07:07:57.177Z,100.00
2018-11-26T07:10:25.872Z,100.00
2018-11-26T07:12:54.527Z,100.00
2018-11-26T07:15:23.258Z,100.00
2018-11-26T07:17:52.030Z,100.00
2018-11-26T07:20:21.510Z,100.00
2018-11-26T07:22:50.306Z,100.00
2018-11-26T07:25:20.951Z,100.00
2018-11-26T07:27:52.903Z,100.00
2018-11-26T07:30:23.829Z,100.00
2018-11-26T07:32:52.476Z,100.00
2018-11-26T07:35:21.147Z,100.00
2018-11-26T07:37:49.902Z,100.00
2018-11-26T07:40:21.387Z,100.00
2018-11-26T07:42:54.731Z,100.00
2018-11-26T07:45:23.461Z,100.00
2018-11-26T07:47:52.172Z,100.00
2018-11-26T07:50:20.907Z,100.00
2018-11-26T07:52:49.568Z,100.00
2018-11-26T07:55:19.406Z,100.00
2018-11-26T07:57:48.036Z,100.00
2018-11-26T08:00:17.986Z,100.00
2018-11-26T08:02:46.990Z,100.00
2018-11-26T08:05:16.824Z,100.00
2018-11-26T08:07:45.536Z,100.00
2018-11-26T08:10:19.155Z,100.00
2018-11-26T08:12:48.831Z,100.00
2018-11-26T08:15:22.569Z,100.00
2018-11-26T08:17:51.330Z,100.00
2018-11-26T08:20:19.986Z,100.00
2018-11-26T08:22:48.651Z,100.00
2018-11-26T08:25:18.886Z,100.00
2018-11-26T08:27:48.291Z,100.00
2018-11-26T08:30:19.510Z,100.00
2018-11-26T08:32:49.486Z,100.00
2018-11-26T08:35:18.482Z,100.00
2018-11-26T08:37:52.419Z,100.00
2018-11-26T08:40:25.666Z,100.00
2018-11-26T08:42:59.382Z,100.00
2018-11-26T08:45:34.399Z,100.00
2018-11-26T08:48:08.029Z,100.00
2018-11-26T08:50:36.710Z,100.00
2018-11-26T08:53:05.333Z,100.00
2018-11-26T08:55:34.002Z,100.00
2018-11-26T08:58:02.679Z,100.00
2018-11-26T09:00:31.370Z,100.00
2018-11-26T09:03:05.824Z,100.00
2018-11-26T09:05:40.992Z,100.00
2018-11-26T09:08:09.624Z,100.00
2018-11-26T09:10:38.529Z,100.00
2018-11-26T09:13:07.212Z,100.00
2018-11-26T09:15:35.847Z,100.00
2018-11-26T09:18:04.525Z,100.00
2018-11-26T09:20:33.192Z,100.00
2018-11-26T09:23:01.911Z,100.00
2018-11-26T09:25:30.577Z,100.00
2018-11-26T09:27:59.235Z,100.00
2018-11-26T09:30:27.940Z,100.00
2018-11-26T09:32:56.686Z,100.00
2018-11-26T09:35:25.359Z,100.00
2018-11-26T09:37:54.115Z,100.00
2018-11-26T09:40:22.776Z,100.00
2018-11-26T09:42:51.469Z,100.00
2018-11-26T09:45:20.067Z,100.00
2018-11-26T09:47:48.717Z,100.00
2018-11-26T09:50:19.814Z,100.00
2018-11-26T09:52:48.457Z,100.00
2018-11-26T09:55:17.579Z,100.00
2018-11-26T09:57:46.187Z,100.00
2018-11-26T10:00:17.941Z,100.00
2018-11-26T10:02:48.512Z,100.00
2018-11-26T10:05:21.108Z,100.00
2018-11-26T10:07:49.757Z,100.00
2018-11-26T10:10:18.479Z,100.00
2018-11-26T10:12:47.272Z,100.00
2018-11-26T10:15:19.056Z,100.00
2018-11-26T10:17:47.871Z,100.00
2018-11-26T10:20:16.584Z,100.00
2018-11-26T10:22:45.756Z,100.00
2018-11-26T10:25:16.384Z,100.00
2018-11-26T10:27:45.031Z,100.00
2018-11-26T10:30:18.051Z,100.00
2018-11-26T10:32:47.447Z,99.50
2018-11-26T10:35:17.051Z,100.00
2018-11-26T10:37:45.811Z,99.97
2018-11-26T10:40:18.571Z,98.99
2018-11-26T10:42:47.196Z,98.76
2018-11-26T10:45:16.861Z,100.00
2018-11-26T10:47:45.560Z,96.73
2018-11-26T10:50:15.326Z,95.75
2018-11-26T10:52:51.060Z,93.10
2018-11-26T10:55:21.925Z,91.85
2018-11-26T10:57:50.632Z,94.24
2018-11-26T11:00:24.579Z,91.77
2018-11-26T11:02:53.355Z,88.06
2018-11-26T11:05:22.091Z,87.72
2018-11-26T11:07:50.711Z,87.44
2018-11-26T11:10:21.515Z,90.12
2018-11-26T11:12:50.435Z,89.46
2018-11-26T11:15:19.227Z,89.74
2018-11-26T11:17:47.953Z,89.28
2018-11-26T11:20:25.920Z,87.96
2018-11-26T11:22:54.581Z,84.50
2018-11-26T11:25:23.636Z,85.38
2018-11-26T11:27:52.532Z,84.52
2018-11-26T11:30:22.366Z,83.53
2018-11-26T11:32:51.072Z,85.71
2018-11-26T11:35:20.019Z,84.74
2018-11-26T11:37:49.574Z,84.05
2018-11-26T11:40:19.901Z,84.26
2018-11-26T11:42:48.732Z,84.92
2018-11-26T11:45:17.627Z,83.95
2018-11-26T11:47:46.333Z,83.63
2018-11-26T11:50:16.329Z,83.90
2018-11-26T11:52:45.284Z,84.34
2018-11-26T11:55:17.836Z,82.38
2018-11-26T11:57:46.513Z,81.57
2018-11-26T12:00:34.063Z,81.10
2018-11-26T12:03:04.115Z,82.57
2018-11-26T12:05:32.762Z,83.34
2018-11-26T12:08:01.456Z,82.99
2018-11-26T12:10:30.122Z,83.24
2018-11-26T12:12:58.744Z,83.33
2018-11-26T12:15:27.392Z,82.51
2018-11-26T12:17:56.035Z,82.51
2018-11-26T12:20:24.695Z,83.02
2018-11-26T12:22:53.396Z,83.26
2018-11-26T12:25:22.393Z,83.56
2018-11-26T12:27:51.142Z,83.64
2018-11-26T12:30:22.899Z,84.15
2018-11-26T12:32:51.579Z,84.51
2018-11-26T12:35:20.252Z,83.78
2018-11-26T12:37:48.959Z,83.30
2018-11-26T12:40:20.628Z,82.59
2018-11-26T12:42:50.210Z,81.95
2018-11-26T12:45:21.923Z,80.20
2018-11-26T12:47:50.615Z,81.58
2018-11-26T12:50:19.293Z,81.17
2018-11-26T12:52:47.982Z,80.77
2018-11-26T12:55:17.688Z,80.57
2018-11-26T12:57:47.138Z,81.58
2018-11-26T13:00:18.077Z,82.09
2018-11-26T13:02:48.164Z,81.99
2018-11-26T13:05:17.792Z,82.57
2018-11-26T13:07:46.557Z,82.19
2018-11-26T13:10:16.262Z,82.03
2018-11-26T13:12:45.274Z,82.62
2018-11-26T13:15:15.277Z,82.78
2018-11-26T13:17:43.924Z,82.26
2018-11-26T13:20:16.972Z,82.08
2018-11-26T13:22:45.819Z,82.49
2018-11-26T13:25:15.654Z,82.72
2018-11-26T13:27:45.855Z,82.36
2018-11-26T13:30:19.794Z,82.20
2018-11-26T13:32:49.551Z,82.09
2018-11-26T13:35:18.969Z,82.62
2018-11-26T13:37:47.800Z,82.29
2018-11-26T13:40:17.348Z,82.38
2018-11-26T13:42:46.234Z,82.40
2018-11-26T13:45:18.088Z,81.54
2018-11-26T13:47:46.787Z,82.87
2018-11-26T13:50:21.174Z,82.33
2018-11-26T13:52:49.860Z,82.35
2018-11-26T13:55:18.551Z,81.98
2018-11-26T13:57:47.185Z,82.37
2018-11-26T14:00:18.101Z,83.12
2018-11-26T14:02:46.746Z,83.00
2018-11-26T14:05:16.610Z,83.12
2018-11-26T14:07:45.665Z,82.84
2018-11-26T14:10:17.389Z,82.24
2018-11-26T14:12:47.012Z,82.17
2018-11-26T14:15:16.113Z,82.63
2018-11-26T14:17:44.826Z,82.48
2018-11-26T14:20:14.911Z,82.61
2018-11-26T14:22:43.579Z,82.57
2018-11-26T14:25:13.579Z,82.30
2018-11-26T14:27:42.685Z,82.33
2018-11-26T14:30:15.666Z,82.62
2018-11-26T14:32:44.388Z,82.59
2018-11-26T14:35:13.090Z,82.89
2018-11-26T14:37:41.848Z,82.82
2018-11-26T14:40:22.070Z,82.41
2018-11-26T14:42:50.707Z,82.96
2018-11-26T14:45:19.394Z,82.61
2018-11-26T14:47:48.127Z,82.84
2018-11-26T14:50:17.357Z,83.14
2018-11-26T14:52:47.092Z,82.30
2018-11-26T14:55:21.262Z,82.74
2018-11-26T14:57:49.934Z,83.29
2018-11-26T15:00:19.304Z,84.25
2018-11-26T15:02:48.096Z,83.32
2018-11-26T15:05:16.808Z,84.29
2018-11-26T15:07:45.680Z,84.67
2018-11-26T15:10:17.405Z,85.14
2018-11-26T15:12:46.524Z,84.13
2018-11-26T15:15:16.367Z,83.77
2018-11-26T15:17:45.537Z,84.09
2018-11-26T15:20:15.524Z,83.69
2018-11-26T15:22:44.267Z,84.18
2018-11-26T15:25:15.182Z,85.19
2018-11-26T15:27:43.941Z,85.00
2018-11-26T15:30:14.012Z,85.42
2018-11-26T15:32:42.678Z,85.04
2018-11-26T15:35:16.130Z,85.57
2018-11-26T15:37:44.896Z,85.96
2018-11-26T15:53:18.020Z,86.33
2018-11-26T15:55:46.964Z,85.65
2018-11-26T15:58:15.630Z,85.78
2018-11-26T16:00:44.352Z,86.01
2018-11-26T16:03:13.013Z,85.48
2018-11-26T16:05:41.661Z,84.61
2018-11-26T16:08:11.940Z,84.45
2018-11-26T16:10:40.619Z,84.72
2018-11-26T16:13:10.424Z,83.00
2018-11-26T16:15:40.663Z,82.42
2018-11-26T16:18:15.945Z,82.53
2018-11-26T16:20:44.553Z,82.77
2018-11-26T16:23:13.284Z,83.29
2018-11-26T16:25:44.112Z,83.97
2018-11-26T16:28:19.393Z,83.82
2018-11-26T16:30:48.078Z,83.65
2018-11-26T16:33:16.764Z,83.44
2018-11-26T16:35:45.468Z,83.30
2018-11-26T16:38:14.473Z,83.84
2018-11-26T16:40:43.098Z,84.49
2018-11-26T16:43:11.777Z,84.65
2018-11-26T16:45:40.467Z,83.74
2018-11-26T16:48:09.124Z,82.25
2018-11-26T16:50:38.106Z,81.33
2018-11-26T16:53:07.588Z,82.07
2018-11-26T16:55:36.274Z,81.91
2018-11-26T16:58:05.134Z,82.62
2018-11-26T17:00:33.843Z,82.63
2018-11-26T17:03:02.845Z,82.65
2018-11-26T17:05:41.340Z,82.80
2018-11-26T17:08:13.060Z,83.13
2018-11-26T17:10:41.945Z,83.34
2018-11-26T17:13:11.638Z,84.57
2018-11-26T17:15:40.305Z,85.19
2018-11-26T17:18:08.944Z,85.22
2018-11-26T17:20:38.339Z,85.76
2018-11-26T17:23:07.549Z,85.75
2018-11-26T17:25:36.282Z,86.45
2018-11-26T17:28:04.988Z,86.96
2018-11-26T17:30:33.652Z,86.45
2018-11-26T17:33:03.538Z,86.78
2018-11-26T17:35:32.689Z,87.36
2018-11-26T17:38:01.342Z,87.94
2018-11-26T17:40:30.152Z,87.71
2018-11-26T17:42:58.823Z,87.66
2018-11-26T17:45:27.575Z,87.79
2018-11-26T17:47:57.315Z,87.42
2018-11-26T17:50:30.267Z,88.20
2018-11-26T17:52:59.067Z,88.22
2018-11-26T17:55:27.758Z,88.70
2018-11-26T17:57:56.382Z,89.13
2018-11-26T18:00:28.313Z,89.42
2018-11-26T18:02:56.966Z,88.82
2018-11-26T18:05:27.085Z,88.52
2018-11-26T18:07:59.384Z,87.68
2018-11-26T18:10:28.123Z,87.10
2018-11-26T18:12:56.792Z,87.45
2018-11-26T18:15:25.453Z,87.20
2018-11-26T18:17:54.175Z,87.09
2018-11-26T18:20:23.203Z,87.55
2018-11-26T18:22:53.193Z,87.62
2018-11-26T18:25:22.391Z,87.95
2018-11-26T18:27:53.730Z,88.07
2018-11-26T18:30:28.334Z,88.45
2018-11-26T18:32:57.307Z,88.25
2018-11-26T18:35:25.972Z,88.75
2018-11-26T18:37:54.649Z,88.57
2018-11-26T18:40:23.251Z,88.46
2018-11-26T18:42:51.919Z,88.74
2018-11-26T18:45:20.857Z,88.96
2018-11-26T18:47:49.579Z,89.11
2018-11-26T18:50:20.389Z,89.08
2018-11-26T18:52:49.926Z,88.73
2018-11-26T18:55:18.720Z,88.78
2018-11-26T18:57:47.487Z,88.86
2018-11-26T19:00:21.450Z,89.54
2018-11-26T19:02:50.506Z,89.26
2018-11-26T19:05:19.770Z,89.59
2018-11-26T19:07:48.503Z,90.13
2018-11-26T19:10:21.975Z,89.93
2018-11-26T19:12:52.523Z,89.56
2018-11-26T19:15:28.015Z,89.90
2018-11-26T19:17:59.001Z,90.27
2018-11-26T19:20:27.676Z,90.65
2018-11-26T19:22:56.394Z,90.84
2018-11-26T19:25:25.079Z,90.80
2018-11-26T19:27:53.793Z,90.90
2018-11-26T19:30:23.128Z,90.86
2018-11-26T19:32:51.318Z,91.54
2018-11-26T19:35:19.963Z,91.18
2018-11-26T19:37:48.977Z,91.41
2018-11-26T19:40:17.757Z,91.83
2018-11-26T19:42:47.671Z,91.85
2018-11-26T19:45:17.661Z,92.17
2018-11-26T19:47:46.501Z,92.98
2018-11-26T19:50:18.311Z,93.69
2018-11-26T19:52:49.256Z,93.67
2018-11-26T19:55:21.100Z,93.59
2018-11-26T19:57:49.973Z,93.62
2018-11-26T20:00:26.354Z,94.26
2018-11-26T20:03:01.264Z,94.60
2018-11-26T20:05:40.112Z,94.38
2018-11-26T20:08:08.782Z,95.14
2018-11-26T20:10:37.407Z,94.25
2018-11-26T20:13:07.237Z,94.25
2018-11-26T20:15:35.947Z,93.65
2018-11-26T20:18:05.006Z,93.58
2018-11-26T20:20:33.648Z,93.50
2018-11-26T20:23:02.362Z,93.26
2018-11-26T20:25:31.358Z,93.05
2018-11-26T20:28:00.019Z,93.66
2018-11-26T20:30:28.699Z,93.64
2018-11-26T20:32:57.950Z,93.44
2018-11-26T20:35:26.644Z,93.48
2018-11-26T20:37:55.411Z,93.20
2018-11-26T20:40:24.205Z,92.25
2018-11-26T20:42:55.247Z,92.25
2018-11-26T20:45:24.099Z,92.21
2018-11-26T20:47:53.616Z,92.75
2018-11-26T20:50:26.508Z,93.25
2018-11-26T20:52:55.302Z,93.24
2018-11-26T20:55:25.073Z,92.68
2018-11-26T20:57:55.238Z,92.63
2018-11-26T21:00:25.984Z,92.45
2018-11-26T21:03:00.895Z,92.99
2018-11-26T21:05:29.565Z,92.49
2018-11-26T21:07:58.272Z,92.31
2018-11-26T21:10:27.012Z,91.02
2018-11-26T21:12:55.800Z,91.21
2018-11-26T21:15:24.484Z,91.66
2018-11-26T21:17:54.058Z,91.09
2018-11-26T21:20:26.162Z,90.83
2018-11-26T21:22:55.332Z,91.80
2018-11-26T21:25:24.058Z,92.13
2018-11-26T21:27:52.755Z,92.53
2018-11-26T21:30:21.503Z,92.56
2018-11-26T21:32:50.268Z,93.46
2018-11-26T21:35:19.964Z,93.60
2018-11-26T21:37:49.989Z,94.36
2018-11-26T21:40:22.116Z,94.48
2018-11-26T21:42:50.863Z,94.95
2018-11-26T21:45:21.230Z,95.07
2018-11-26T21:47:49.949Z,94.97
2018-11-26T21:50:18.660Z,95.17
2018-11-26T21:52:47.407Z,95.35
2018-11-26T21:55:17.358Z,96.10
2018-11-26T21:57:46.109Z,96.33
2018-11-26T22:00:34.504Z,96.29
2018-11-26T22:03:09.237Z,96.77
2018-11-26T22:05:38.917Z,97.31
2018-11-26T22:08:08.251Z,97.08
2018-11-26T22:10:38.138Z,97.42
2018-11-26T22:13:08.094Z,98.21
2018-11-26T22:15:37.242Z,97.82
2018-11-26T22:18:06.447Z,97.55
2018-11-26T22:20:35.227Z,97.94
2018-11-26T22:23:18.642Z,98.31
2018-11-26T22:25:47.347Z,98.61
2018-11-26T22:28:16.100Z,99.01
2018-11-26T22:30:44.961Z,98.97
2018-11-26T22:33:13.840Z,98.88
2018-11-26T22:35:42.566Z,99.62
2018-11-26T22:38:11.315Z,100.00
2018-11-26T22:40:39.951Z,100.00
2018-11-26T22:43:08.687Z,100.00
2018-11-26T22:45:37.374Z,100.00
2018-11-26T22:48:13.553Z,100.00
2018-11-26T22:50:43.308Z,100.00
2018-11-26T22:53:12.082Z,100.00
2018-11-26T22:55:40.865Z,100.00
2018-11-26T22:58:12.783Z,100.00
2018-11-26T23:00:53.960Z,100.00
2018-11-26T23:03:23.911Z,100.00
2018-11-26T23:05:52.581Z,100.00
2018-11-26T23:08:21.309Z,98.01
2018-11-26T23:10:50.078Z,94.45
2018-11-26T23:13:18.799Z,93.86
2018-11-26T23:15:47.517Z,93.55
2018-11-26T23:18:16.208Z,95.03
2018-11-26T23:20:44.944Z,96.64
2018-11-26T23:23:13.606Z,97.24
2018-11-26T23:25:42.303Z,97.98
2018-11-26T23:28:11.051Z,100.00
2018-11-26T23:30:39.717Z,100.00
2018-11-26T23:33:08.774Z,100.00
2018-11-26T23:35:37.462Z,100.00
2018-11-26T23:38:06.539Z,100.00
2018-11-26T23:40:36.036Z,100.00
2018-11-26T23:43:04.972Z,100.00
2018-11-26T23:45:33.663Z,100.00
2018-11-26T23:48:02.383Z,100.00
2018-11-26T23:53:06.739Z,100.00
2018-11-26T23:55:35.432Z,100.00
2018-11-26T23:58:04.192Z,100.00
